sensor_id;sensor_type;location;lat;lon;timestamp;P1;durP1;ratioP1;P2;durP2;ratioP2
16531;SDS011;66872;63.142;14.482;2023-02-08T00:01:10;0.52;;;0.52;;
16531;SDS011;66872;63.142;14.482;2023-02-08T00:03:37;0.32;;;0.32;;
16531;SDS011;66872;63.142;14.482;2023-02-08T00:06:03;0.40;;;0.40;;
16531;SDS011;66872;63.142;14.482;2023-02-08T00:08:30;0.25;;;0.25;;
16531;SDS011;66872;63.142;14.482;2023-02-08T00:21:05;0.63;;;0.57;;
16531;SDS011;66872;63.142;14.482;2023-02-08T00:23:32;0.40;;;0.40;;
16531;SDS011;66872;63.142;14.482;2023-02-08T00:25:58;1.27;;;0.35;;
16531;SDS011;66872;63.142;14.482;2023-02-08T00:28:24;0.50;;;0.50;;
16531;SDS011;66872;63.142;14.482;2023-02-08T00:30:49;0.30;;;0.30;;
16531;SDS011;66872;63.142;14.482;2023-02-08T00:33:15;0.50;;;0.50;;
16531;SDS011;66872;63.142;14.482;2023-02-08T00:35:40;0.45;;;0.45;;
16531;SDS011;66872;63.142;14.482;2023-02-08T00:38:06;0.40;;;0.40;;
16531;SDS011;66872;63.142;14.482;2023-02-08T00:40:32;0.68;;;0.60;;
16531;SDS011;66872;63.142;14.482;2023-02-08T00:42:58;0.40;;;0.40;;
16531;SDS011;66872;63.142;14.482;2023-02-08T00:45:23;0.38;;;0.38;;
16531;SDS011;66872;63.142;14.482;2023-02-08T00:47:49;0.82;;;0.70;;
16531;SDS011;66872;63.142;14.482;2023-02-08T00:50:14;0.40;;;0.40;;
16531;SDS011;66872;63.142;14.482;2023-02-08T00:52:40;0.63;;;0.43;;
16531;SDS011;66872;63.142;14.482;2023-02-08T00:55:07;1.30;;;0.40;;
16531;SDS011;66872;63.142;14.482;2023-02-08T00:57:33;0.40;;;0.40;;
16531;SDS011;66872;63.142;14.482;2023-02-08T00:59:59;0.47;;;0.47;;
16531;SDS011;66872;63.142;14.482;2023-02-08T01:02:25;0.60;;;0.60;;
16531;SDS011;66872;63.142;14.482;2023-02-08T01:04:51;0.98;;;0.40;;
16531;SDS011;66872;63.142;14.482;2023-02-08T01:07:16;0.57;;;0.57;;
16531;SDS011;66872;63.142;14.482;2023-02-08T01:09:42;0.60;;;0.60;;
16531;SDS011;66872;63.142;14.482;2023-02-08T01:12:08;0.30;;;0.30;;
16531;SDS011;66872;63.142;14.482;2023-02-08T01:14:35;0.50;;;0.50;;
16531;SDS011;66872;63.142;14.482;2023-02-08T01:17:02;0.30;;;0.30;;
16531;SDS011;66872;63.142;14.482;2023-02-08T01:19:27;0.32;;;0.32;;
16531;SDS011;66872;63.142;14.482;2023-02-08T01:21:53;0.52;;;0.52;;
16531;SDS011;66872;63.142;14.482;2023-02-08T01:24:19;0.50;;;0.50;;
16531;SDS011;66872;63.142;14.482;2023-02-08T01:26:44;0.20;;;0.20;;
16531;SDS011;66872;63.142;14.482;2023-02-08T01:29:10;0.40;;;0.40;;
16531;SDS011;66872;63.142;14.482;2023-02-08T01:31:37;0.20;;;0.20;;
16531;SDS011;66872;63.142;14.482;2023-02-08T01:34:05;0.30;;;0.30;;
16531;SDS011;66872;63.142;14.482;2023-02-08T01:36:32;0.38;;;0.38;;
16531;SDS011;66872;63.142;14.482;2023-02-08T01:38:58;0.30;;;0.30;;
16531;SDS011;66872;63.142;14.482;2023-02-08T01:41:26;0.38;;;0.38;;
16531;SDS011;66872;63.142;14.482;2023-02-08T01:46:28;0.30;;;0.30;;
16531;SDS011;66872;63.142;14.482;2023-02-08T01:48:55;0.30;;;0.30;;
16531;SDS011;66872;63.142;14.482;2023-02-08T01:51:25;0.30;;;0.30;;
16531;SDS011;66872;63.142;14.482;2023-02-08T01:53:52;0.30;;;0.30;;
16531;SDS011;66872;63.142;14.482;2023-02-08T01:56:22;0.40;;;0.40;;
16531;SDS011;66872;63.142;14.482;2023-02-08T01:58:53;0.50;;;0.50;;
16531;SDS011;66872;63.142;14.482;2023-02-08T02:01:23;0.30;;;0.30;;
16531;SDS011;66872;63.142;14.482;2023-02-08T02:03:51;0.32;;;0.32;;
16531;SDS011;66872;63.142;14.482;2023-02-08T02:06:19;0.55;;;0.55;;
16531;SDS011;66872;63.142;14.482;2023-02-08T02:08:49;0.40;;;0.40;;
16531;SDS011;66872;63.142;14.482;2023-02-08T02:11:22;0.20;;;0.20;;
16531;SDS011;66872;63.142;14.482;2023-02-08T02:13:48;0.40;;;0.40;;
16531;SDS011;66872;63.142;14.482;2023-02-08T02:16:15;0.52;;;0.52;;
16531;SDS011;66872;63.142;14.482;2023-02-08T02:18:41;0.40;;;0.40;;
16531;SDS011;66872;63.142;14.482;2023-02-08T02:35:09;0.22;;;0.22;;
16531;SDS011;66872;63.142;14.482;2023-02-08T02:38:07;0.40;;;0.40;;
16531;SDS011;66872;63.142;14.482;2023-02-08T02:47:26;0.40;;;0.35;;
16531;SDS011;66872;63.142;14.482;2023-02-08T02:53:10;0.20;;;0.20;;
16531;SDS011;66872;63.142;14.482;2023-02-08T02:55:58;0.50;;;0.50;;
16531;SDS011;66872;63.142;14.482;2023-02-08T02:58:28;0.40;;;0.40;;
16531;SDS011;66872;63.142;14.482;2023-02-08T03:00:56;0.20;;;0.20;;
16531;SDS011;66872;63.142;14.482;2023-02-08T03:03:24;0.30;;;0.30;;
16531;SDS011;66872;63.142;14.482;2023-02-08T03:05:57;0.50;;;0.50;;
16531;SDS011;66872;63.142;14.482;2023-02-08T03:11:20;0.20;;;0.20;;
16531;SDS011;66872;63.142;14.482;2023-02-08T03:14:08;0.30;;;0.30;;
16531;SDS011;66872;63.142;14.482;2023-02-08T03:17:03;0.30;;;0.30;;
16531;SDS011;66872;63.142;14.482;2023-02-08T03:19:49;0.25;;;0.25;;
16531;SDS011;66872;63.142;14.482;2023-02-08T03:25:06;0.28;;;0.28;;
16531;SDS011;66872;63.142;14.482;2023-02-08T03:27:40;0.55;;;0.55;;
16531;SDS011;66872;63.142;14.482;2023-02-08T03:33:04;0.20;;;0.20;;
16531;SDS011;66872;63.142;14.482;2023-02-08T03:38:19;0.40;;;0.40;;
16531;SDS011;66872;63.142;14.482;2023-02-08T03:40:50;0.40;;;0.40;;
16531;SDS011;66872;63.142;14.482;2023-02-08T03:43:22;0.25;;;0.25;;
16531;SDS011;66872;63.142;14.482;2023-02-08T03:46:45;0.45;;;0.45;;
16531;SDS011;66872;63.142;14.482;2023-02-08T03:49:07;0.30;;;0.30;;
16531;SDS011;66872;63.142;14.482;2023-02-08T03:51:45;0.30;;;0.30;;
16531;SDS011;66872;63.142;14.482;2023-02-08T03:54:14;1.02;;;0.20;;
16531;SDS011;66872;63.142;14.482;2023-02-08T03:56:45;0.28;;;0.28;;
16531;SDS011;66872;63.142;14.482;2023-02-08T03:59:19;2.03;;;0.40;;
16531;SDS011;66872;63.142;14.482;2023-02-08T04:02:22;0.30;;;0.30;;
16531;SDS011;66872;63.142;14.482;2023-02-08T04:04:43;0.30;;;0.30;;
16531;SDS011;66872;63.142;14.482;2023-02-08T04:07:12;0.30;;;0.30;;
16531;SDS011;66872;63.142;14.482;2023-02-08T04:09:38;0.40;;;0.40;;
16531;SDS011;66872;63.142;14.482;2023-02-08T04:12:04;0.30;;;0.30;;
16531;SDS011;66872;63.142;14.482;2023-02-08T04:14:30;0.20;;;0.20;;
16531;SDS011;66872;63.142;14.482;2023-02-08T04:16:56;0.30;;;0.30;;
16531;SDS011;66872;63.142;14.482;2023-02-08T04:19:21;0.50;;;0.50;;
16531;SDS011;66872;63.142;14.482;2023-02-08T04:21:47;0.30;;;0.30;;
16531;SDS011;66872;63.142;14.482;2023-02-08T04:24:13;0.28;;;0.28;;
16531;SDS011;66872;63.142;14.482;2023-02-08T04:26:38;0.30;;;0.30;;
16531;SDS011;66872;63.142;14.482;2023-02-08T04:29:04;0.25;;;0.25;;
16531;SDS011;66872;63.142;14.482;2023-02-08T04:31:30;0.22;;;0.22;;
16531;SDS011;66872;63.142;14.482;2023-02-08T04:33:55;0.40;;;0.40;;
16531;SDS011;66872;63.142;14.482;2023-02-08T04:36:21;1.10;;;0.40;;
16531;SDS011;66872;63.142;14.482;2023-02-08T04:38:47;0.40;;;0.40;;
16531;SDS011;66872;63.142;14.482;2023-02-08T04:41:13;0.40;;;0.40;;
16531;SDS011;66872;63.142;14.482;2023-02-08T04:43:39;0.22;;;0.22;;
16531;SDS011;66872;63.142;14.482;2023-02-08T04:46:04;0.40;;;0.40;;
16531;SDS011;66872;63.142;14.482;2023-02-08T04:48:30;0.30;;;0.30;;
16531;SDS011;66872;63.142;14.482;2023-02-08T04:50:56;0.30;;;0.30;;
16531;SDS011;66872;63.142;14.482;2023-02-08T04:53:23;0.32;;;0.32;;
16531;SDS011;66872;63.142;14.482;2023-02-08T04:55:49;0.40;;;0.40;;
16531;SDS011;66872;63.142;14.482;2023-02-08T04:58:15;0.20;;;0.20;;
16531;SDS011;66872;63.142;14.482;2023-02-08T05:00:41;0.30;;;0.30;;
16531;SDS011;66872;63.142;14.482;2023-02-08T05:03:07;0.40;;;0.40;;
16531;SDS011;66872;63.142;14.482;2023-02-08T05:05:33;0.50;;;0.50;;
16531;SDS011;66872;63.142;14.482;2023-02-08T05:07:58;0.50;;;0.50;;
16531;SDS011;66872;63.142;14.482;2023-02-08T05:10:24;0.22;;;0.22;;
16531;SDS011;66872;63.142;14.482;2023-02-08T05:12:50;0.98;;;0.32;;
16531;SDS011;66872;63.142;14.482;2023-02-08T05:15:16;0.30;;;0.30;;
16531;SDS011;66872;63.142;14.482;2023-02-08T05:17:42;0.30;;;0.30;;
16531;SDS011;66872;63.142;14.482;2023-02-08T05:20:08;0.35;;;0.35;;
16531;SDS011;66872;63.142;14.482;2023-02-08T05:22:35;0.32;;;0.32;;
16531;SDS011;66872;63.142;14.482;2023-02-08T05:25:00;0.40;;;0.40;;
16531;SDS011;66872;63.142;14.482;2023-02-08T05:27:26;0.30;;;0.30;;
16531;SDS011;66872;63.142;14.482;2023-02-08T05:29:52;0.30;;;0.30;;
16531;SDS011;66872;63.142;14.482;2023-02-08T05:32:18;0.30;;;0.30;;
16531;SDS011;66872;63.142;14.482;2023-02-08T05:34:43;0.10;;;0.10;;
16531;SDS011;66872;63.142;14.482;2023-02-08T05:37:09;0.40;;;0.40;;
16531;SDS011;66872;63.142;14.482;2023-02-08T05:39:36;0.20;;;0.20;;
16531;SDS011;66872;63.142;14.482;2023-02-08T05:42:02;0.35;;;0.30;;
16531;SDS011;66872;63.142;14.482;2023-02-08T05:44:27;0.30;;;0.30;;
16531;SDS011;66872;63.142;14.482;2023-02-08T05:46:53;0.28;;;0.28;;
16531;SDS011;66872;63.142;14.482;2023-02-08T05:49:19;0.40;;;0.40;;
16531;SDS011;66872;63.142;14.482;2023-02-08T05:51:44;0.20;;;0.20;;
16531;SDS011;66872;63.142;14.482;2023-02-08T05:54:10;0.85;;;0.40;;
16531;SDS011;66872;63.142;14.482;2023-02-08T05:56:36;0.40;;;0.40;;
16531;SDS011;66872;63.142;14.482;2023-02-08T05:59:02;0.25;;;0.25;;
16531;SDS011;66872;63.142;14.482;2023-02-08T06:01:28;0.40;;;0.40;;
16531;SDS011;66872;63.142;14.482;2023-02-08T06:03:54;0.40;;;0.40;;
16531;SDS011;66872;63.142;14.482;2023-02-08T06:06:20;0.50;;;0.50;;
16531;SDS011;66872;63.142;14.482;2023-02-08T06:08:45;0.30;;;0.30;;
16531;SDS011;66872;63.142;14.482;2023-02-08T06:11:11;1.52;;;0.60;;
16531;SDS011;66872;63.142;14.482;2023-02-08T06:13:37;0.40;;;0.40;;
16531;SDS011;66872;63.142;14.482;2023-02-08T06:16:03;0.85;;;0.40;;
16531;SDS011;66872;63.142;14.482;2023-02-08T06:18:30;0.30;;;0.30;;
16531;SDS011;66872;63.142;14.482;2023-02-08T06:20:55;0.50;;;0.40;;
16531;SDS011;66872;63.142;14.482;2023-02-08T06:23:21;0.50;;;0.50;;
16531;SDS011;66872;63.142;14.482;2023-02-08T06:25:48;1.17;;;0.40;;
16531;SDS011;66872;63.142;14.482;2023-02-08T06:28:14;0.40;;;0.40;;
16531;SDS011;66872;63.142;14.482;2023-02-08T06:30:39;0.88;;;0.75;;
16531;SDS011;66872;63.142;14.482;2023-02-08T06:33:05;0.60;;;0.50;;
16531;SDS011;66872;63.142;14.482;2023-02-08T06:35:31;0.50;;;0.50;;
16531;SDS011;66872;63.142;14.482;2023-02-08T06:37:57;1.23;;;0.80;;
16531;SDS011;66872;63.142;14.482;2023-02-08T06:40:23;0.95;;;0.47;;
16531;SDS011;66872;63.142;14.482;2023-02-08T06:42:49;0.68;;;0.68;;
16531;SDS011;66872;63.142;14.482;2023-02-08T06:45:15;0.77;;;0.60;;
16531;SDS011;66872;63.142;14.482;2023-02-08T06:47:41;1.40;;;0.88;;
16531;SDS011;66872;63.142;14.482;2023-02-08T06:50:07;0.65;;;0.63;;
16531;SDS011;66872;63.142;14.482;2023-02-08T06:52:33;1.05;;;0.50;;
16531;SDS011;66872;63.142;14.482;2023-02-08T06:54:59;0.52;;;0.52;;
16531;SDS011;66872;63.142;14.482;2023-02-08T06:57:25;0.40;;;0.40;;
16531;SDS011;66872;63.142;14.482;2023-02-08T06:59:51;1.02;;;0.45;;
16531;SDS011;66872;63.142;14.482;2023-02-08T07:02:18;0.32;;;0.32;;
16531;SDS011;66872;63.142;14.482;2023-02-08T07:04:44;0.25;;;0.25;;
16531;SDS011;66872;63.142;14.482;2023-02-08T07:07:10;0.50;;;0.40;;
16531;SDS011;66872;63.142;14.482;2023-02-08T07:09:36;0.50;;;0.50;;
16531;SDS011;66872;63.142;14.482;2023-02-08T07:12:02;2.45;;;0.57;;
16531;SDS011;66872;63.142;14.482;2023-02-08T07:14:37;0.55;;;0.50;;
16531;SDS011;66872;63.142;14.482;2023-02-08T07:17:04;0.50;;;0.50;;
16531;SDS011;66872;63.142;14.482;2023-02-08T07:19:30;0.65;;;0.32;;
16531;SDS011;66872;63.142;14.482;2023-02-08T07:21:55;0.30;;;0.30;;
16531;SDS011;66872;63.142;14.482;2023-02-08T07:24:22;0.52;;;0.52;;
16531;SDS011;66872;63.142;14.482;2023-02-08T07:26:48;0.35;;;0.35;;
16531;SDS011;66872;63.142;14.482;2023-02-08T07:29:13;0.50;;;0.50;;
16531;SDS011;66872;63.142;14.482;2023-02-08T07:31:39;0.45;;;0.45;;
16531;SDS011;66872;63.142;14.482;2023-02-08T07:34:05;0.55;;;0.55;;
16531;SDS011;66872;63.142;14.482;2023-02-08T07:36:30;0.50;;;0.50;;
16531;SDS011;66872;63.142;14.482;2023-02-08T07:38:56;0.50;;;0.50;;
16531;SDS011;66872;63.142;14.482;2023-02-08T07:41:22;0.20;;;0.20;;
16531;SDS011;66872;63.142;14.482;2023-02-08T07:43:47;1.20;;;0.60;;
16531;SDS011;66872;63.142;14.482;2023-02-08T07:46:18;0.52;;;0.52;;
16531;SDS011;66872;63.142;14.482;2023-02-08T07:48:45;0.40;;;0.40;;
16531;SDS011;66872;63.142;14.482;2023-02-08T07:51:11;0.50;;;0.50;;
16531;SDS011;66872;63.142;14.482;2023-02-08T07:53:37;0.50;;;0.50;;
16531;SDS011;66872;63.142;14.482;2023-02-08T07:56:03;0.32;;;0.32;;
16531;SDS011;66872;63.142;14.482;2023-02-08T07:58:29;0.40;;;0.40;;
16531;SDS011;66872;63.142;14.482;2023-02-08T08:00:55;0.40;;;0.40;;
16531;SDS011;66872;63.142;14.482;2023-02-08T08:03:22;0.32;;;0.32;;
16531;SDS011;66872;63.142;14.482;2023-02-08T08:05:48;1.98;;;0.60;;
16531;SDS011;66872;63.142;14.482;2023-02-08T08:08:15;0.32;;;0.32;;
16531;SDS011;66872;63.142;14.482;2023-02-08T08:10:41;0.63;;;0.50;;
16531;SDS011;66872;63.142;14.482;2023-02-08T08:13:07;0.30;;;0.30;;
16531;SDS011;66872;63.142;14.482;2023-02-08T08:15:33;0.30;;;0.30;;
16531;SDS011;66872;63.142;14.482;2023-02-08T08:17:59;0.40;;;0.40;;
16531;SDS011;66872;63.142;14.482;2023-02-08T08:20:24;1.25;;;0.70;;
16531;SDS011;66872;63.142;14.482;2023-02-08T08:22:50;0.50;;;0.50;;
16531;SDS011;66872;63.142;14.482;2023-02-08T08:25:16;0.50;;;0.50;;
16531;SDS011;66872;63.142;14.482;2023-02-08T08:27:41;0.40;;;0.40;;
16531;SDS011;66872;63.142;14.482;2023-02-08T08:30:08;0.50;;;0.50;;
16531;SDS011;66872;63.142;14.482;2023-02-08T08:32:38;0.25;;;0.25;;
16531;SDS011;66872;63.142;14.482;2023-02-08T08:35:04;0.25;;;0.25;;
16531;SDS011;66872;63.142;14.482;2023-02-08T08:37:31;0.32;;;0.32;;
16531;SDS011;66872;63.142;14.482;2023-02-08T08:39:58;0.30;;;0.30;;
16531;SDS011;66872;63.142;14.482;2023-02-08T08:42:23;0.40;;;0.40;;
16531;SDS011;66872;63.142;14.482;2023-02-08T08:44:50;0.50;;;0.50;;
16531;SDS011;66872;63.142;14.482;2023-02-08T08:47:16;0.30;;;0.30;;
16531;SDS011;66872;63.142;14.482;2023-02-08T08:49:42;0.25;;;0.25;;
16531;SDS011;66872;63.142;14.482;2023-02-08T08:52:08;0.32;;;0.32;;
16531;SDS011;66872;63.142;14.482;2023-02-08T08:54:34;0.38;;;0.38;;
16531;SDS011;66872;63.142;14.482;2023-02-08T08:57:00;0.30;;;0.30;;
16531;SDS011;66872;63.142;14.482;2023-02-08T08:59:26;1.20;;;0.43;;
16531;SDS011;66872;63.142;14.482;2023-02-08T09:01:52;0.22;;;0.22;;
16531;SDS011;66872;63.142;14.482;2023-02-08T09:04:18;0.30;;;0.30;;
16531;SDS011;66872;63.142;14.482;2023-02-08T09:06:47;0.50;;;0.50;;
16531;SDS011;66872;63.142;14.482;2023-02-08T09:09:16;0.38;;;0.38;;
16531;SDS011;66872;63.142;14.482;2023-02-08T09:11:42;0.30;;;0.30;;
16531;SDS011;66872;63.142;14.482;2023-02-08T09:14:07;0.50;;;0.50;;
16531;SDS011;66872;63.142;14.482;2023-02-08T09:16:33;0.32;;;0.32;;
16531;SDS011;66872;63.142;14.482;2023-02-08T09:19:02;0.40;;;0.40;;
16531;SDS011;66872;63.142;14.482;2023-02-08T09:21:30;0.30;;;0.30;;
16531;SDS011;66872;63.142;14.482;2023-02-08T09:23:56;0.47;;;0.47;;
16531;SDS011;66872;63.142;14.482;2023-02-08T09:26:22;0.40;;;0.40;;
16531;SDS011;66872;63.142;14.482;2023-02-08T09:28:49;0.30;;;0.30;;
16531;SDS011;66872;63.142;14.482;2023-02-08T09:31:21;0.40;;;0.40;;
16531;SDS011;66872;63.142;14.482;2023-02-08T09:33:53;0.43;;;0.43;;
16531;SDS011;66872;63.142;14.482;2023-02-08T09:36:21;0.45;;;0.45;;
16531;SDS011;66872;63.142;14.482;2023-02-08T09:38:48;0.40;;;0.40;;
16531;SDS011;66872;63.142;14.482;2023-02-08T09:44:13;0.55;;;0.40;;
16531;SDS011;66872;63.142;14.482;2023-02-08T09:50:11;0.30;;;0.30;;
16531;SDS011;66872;63.142;14.482;2023-02-08T09:52:51;0.38;;;0.38;;
16531;SDS011;66872;63.142;14.482;2023-02-08T09:58:54;0.32;;;0.32;;
16531;SDS011;66872;63.142;14.482;2023-02-08T10:01:20;0.88;;;0.47;;
16531;SDS011;66872;63.142;14.482;2023-02-08T10:03:49;0.40;;;0.40;;
16531;SDS011;66872;63.142;14.482;2023-02-08T10:06:19;0.40;;;0.40;;
16531;SDS011;66872;63.142;14.482;2023-02-08T10:08:45;2.17;;;0.55;;
16531;SDS011;66872;63.142;14.482;2023-02-08T10:25:12;0.30;;;0.30;;
16531;SDS011;66872;63.142;14.482;2023-02-08T10:30:34;0.40;;;0.40;;
16531;SDS011;66872;63.142;14.482;2023-02-08T10:33:14;0.50;;;0.50;;
16531;SDS011;66872;63.142;14.482;2023-02-08T10:35:43;0.65;;;0.30;;
16531;SDS011;66872;63.142;14.482;2023-02-08T10:40:43;0.32;;;0.32;;
16531;SDS011;66872;63.142;14.482;2023-02-08T10:48:33;1.55;;;0.50;;
16531;SDS011;66872;63.142;14.482;2023-02-08T10:51:13;0.30;;;0.30;;
16531;SDS011;66872;63.142;14.482;2023-02-08T10:53:42;0.30;;;0.30;;
16531;SDS011;66872;63.142;14.482;2023-02-08T10:56:13;0.40;;;0.40;;
16531;SDS011;66872;63.142;14.482;2023-02-08T10:58:59;0.20;;;0.20;;
16531;SDS011;66872;63.142;14.482;2023-02-08T11:01:30;0.43;;;0.43;;
16531;SDS011;66872;63.142;14.482;2023-02-08T11:04:04;0.25;;;0.25;;
16531;SDS011;66872;63.142;14.482;2023-02-08T11:06:34;0.40;;;0.40;;
16531;SDS011;66872;63.142;14.482;2023-02-08T11:09:00;0.45;;;0.45;;
16531;SDS011;66872;63.142;14.482;2023-02-08T11:11:25;0.68;;;0.40;;
16531;SDS011;66872;63.142;14.482;2023-02-08T11:14:04;0.47;;;0.47;;
16531;SDS011;66872;63.142;14.482;2023-02-08T11:16:39;0.38;;;0.30;;
16531;SDS011;66872;63.142;14.482;2023-02-08T11:19:05;0.60;;;0.45;;
16531;SDS011;66872;63.142;14.482;2023-02-08T11:21:39;0.30;;;0.30;;
16531;SDS011;66872;63.142;14.482;2023-02-08T11:26:51;1.27;;;0.40;;
16531;SDS011;66872;63.142;14.482;2023-02-08T11:29:21;0.30;;;0.30;;
16531;SDS011;66872;63.142;14.482;2023-02-08T11:31:56;2.40;;;0.45;;
16531;SDS011;66872;63.142;14.482;2023-02-08T11:34:25;0.52;;;0.52;;
16531;SDS011;66872;63.142;14.482;2023-02-08T11:36:57;0.40;;;0.40;;
16531;SDS011;66872;63.142;14.482;2023-02-08T11:39:41;0.50;;;0.50;;
16531;SDS011;66872;63.142;14.482;2023-02-08T11:42:18;0.40;;;0.40;;
16531;SDS011;66872;63.142;14.482;2023-02-08T11:44:49;0.45;;;0.45;;
16531;SDS011;66872;63.142;14.482;2023-02-08T11:47:17;0.57;;;0.57;;
16531;SDS011;66872;63.142;14.482;2023-02-08T11:49:54;0.28;;;0.28;;
16531;SDS011;66872;63.142;14.482;2023-02-08T11:52:26;0.40;;;0.40;;
16531;SDS011;66872;63.142;14.482;2023-02-08T12:00:38;0.43;;;0.43;;
16531;SDS011;66872;63.142;14.482;2023-02-08T12:08:56;0.90;;;0.45;;
16531;SDS011;66872;63.142;14.482;2023-02-08T12:22:47;0.38;;;0.38;;
16531;SDS011;66872;63.142;14.482;2023-02-08T12:28:05;0.20;;;0.20;;
16531;SDS011;66872;63.142;14.482;2023-02-08T12:33:30;0.40;;;0.40;;
16531;SDS011;66872;63.142;14.482;2023-02-08T12:39:04;0.75;;;0.40;;
16531;SDS011;66872;63.142;14.482;2023-02-08T12:49:27;0.50;;;0.50;;
16531;SDS011;66872;63.142;14.482;2023-02-08T12:54:43;0.30;;;0.30;;
16531;SDS011;66872;63.142;14.482;2023-02-08T12:57:14;0.22;;;0.20;;
16531;SDS011;66872;63.142;14.482;2023-02-08T12:59:51;0.32;;;0.32;;
16531;SDS011;66872;63.142;14.482;2023-02-08T13:02:30;0.47;;;0.47;;
16531;SDS011;66872;63.142;14.482;2023-02-08T13:05:03;0.35;;;0.35;;
16531;SDS011;66872;63.142;14.482;2023-02-08T13:07:32;1.10;;;0.57;;
16531;SDS011;66872;63.142;14.482;2023-02-08T13:15:56;0.68;;;0.52;;
16531;SDS011;66872;63.142;14.482;2023-02-08T13:18:32;0.40;;;0.40;;
16531;SDS011;66872;63.142;14.482;2023-02-08T13:21:02;0.40;;;0.40;;
16531;SDS011;66872;63.142;14.482;2023-02-08T13:23:37;0.50;;;0.50;;
16531;SDS011;66872;63.142;14.482;2023-02-08T13:26:28;2.15;;;0.55;;
16531;SDS011;66872;63.142;14.482;2023-02-08T13:28:56;1.17;;;0.60;;
16531;SDS011;66872;63.142;14.482;2023-02-08T13:31:23;2.28;;;0.52;;
16531;SDS011;66872;63.142;14.482;2023-02-08T13:36:40;0.45;;;0.40;;
16531;SDS011;66872;63.142;14.482;2023-02-08T13:42:00;0.55;;;0.55;;
16531;SDS011;66872;63.142;14.482;2023-02-08T13:44:30;0.60;;;0.60;;
16531;SDS011;66872;63.142;14.482;2023-02-08T13:46:59;0.50;;;0.50;;
16531;SDS011;66872;63.142;14.482;2023-02-08T13:52:58;0.60;;;0.40;;
16531;SDS011;66872;63.142;14.482;2023-02-08T14:00:47;0.52;;;0.52;;
16531;SDS011;66872;63.142;14.482;2023-02-08T14:03:25;0.65;;;0.55;;
16531;SDS011;66872;63.142;14.482;2023-02-08T14:05:59;1.00;;;0.60;;
16531;SDS011;66872;63.142;14.482;2023-02-08T14:08:55;0.50;;;0.40;;
16531;SDS011;66872;63.142;14.482;2023-02-08T14:11:43;0.40;;;0.40;;
16531;SDS011;66872;63.142;14.482;2023-02-08T14:14:25;0.57;;;0.40;;
16531;SDS011;66872;63.142;14.482;2023-02-08T14:19:35;0.60;;;0.60;;
16531;SDS011;66872;63.142;14.482;2023-02-08T14:22:20;0.75;;;0.60;;
16531;SDS011;66872;63.142;14.482;2023-02-08T14:24:47;0.50;;;0.50;;
16531;SDS011;66872;63.142;14.482;2023-02-08T14:32:27;0.60;;;0.60;;
16531;SDS011;66872;63.142;14.482;2023-02-08T14:35:08;1.77;;;0.68;;
16531;SDS011;66872;63.142;14.482;2023-02-08T14:40:49;0.50;;;0.50;;
16531;SDS011;66872;63.142;14.482;2023-02-08T14:45:44;0.22;;;0.22;;
16531;SDS011;66872;63.142;14.482;2023-02-08T14:50:50;0.68;;;0.60;;
16531;SDS011;66872;63.142;14.482;2023-02-08T14:53:18;1.58;;;0.60;;
16531;SDS011;66872;63.142;14.482;2023-02-08T14:55:57;0.45;;;0.45;;
16531;SDS011;66872;63.142;14.482;2023-02-08T14:58:28;1.20;;;0.50;;
16531;SDS011;66872;63.142;14.482;2023-02-08T15:00:56;0.50;;;0.50;;
16531;SDS011;66872;63.142;14.482;2023-02-08T15:03:26;0.35;;;0.35;;
16531;SDS011;66872;63.142;14.482;2023-02-08T15:08:54;0.22;;;0.22;;
16531;SDS011;66872;63.142;14.482;2023-02-08T15:11:24;0.40;;;0.40;;
16531;SDS011;66872;63.142;14.482;2023-02-08T15:13:54;0.57;;;0.57;;
16531;SDS011;66872;63.142;14.482;2023-02-08T15:16:23;0.38;;;0.38;;
16531;SDS011;66872;63.142;14.482;2023-02-08T15:18:57;0.20;;;0.20;;
16531;SDS011;66872;63.142;14.482;2023-02-08T15:21:25;0.55;;;0.47;;
16531;SDS011;66872;63.142;14.482;2023-02-08T15:24:12;0.60;;;0.60;;
16531;SDS011;66872;63.142;14.482;2023-02-08T15:26:43;0.80;;;0.40;;
16531;SDS011;66872;63.142;14.482;2023-02-08T15:29:29;0.50;;;0.50;;
16531;SDS011;66872;63.142;14.482;2023-02-08T15:31:54;0.50;;;0.40;;
16531;SDS011;66872;63.142;14.482;2023-02-08T15:34:24;1.70;;;0.50;;
16531;SDS011;66872;63.142;14.482;2023-02-08T15:36:54;0.30;;;0.30;;
16531;SDS011;66872;63.142;14.482;2023-02-08T15:39:31;1.40;;;0.43;;
16531;SDS011;66872;63.142;14.482;2023-02-08T15:42:12;0.40;;;0.40;;
16531;SDS011;66872;63.142;14.482;2023-02-08T15:44:47;0.40;;;0.40;;
16531;SDS011;66872;63.142;14.482;2023-02-08T15:47:26;0.50;;;0.50;;
16531;SDS011;66872;63.142;14.482;2023-02-08T15:49:55;1.50;;;0.55;;
16531;SDS011;66872;63.142;14.482;2023-02-08T15:52:30;0.63;;;0.60;;
16531;SDS011;66872;63.142;14.482;2023-02-08T15:54:58;0.52;;;0.40;;
16531;SDS011;66872;63.142;14.482;2023-02-08T16:00:04;0.85;;;0.50;;
16531;SDS011;66872;63.142;14.482;2023-02-08T16:02:36;0.40;;;0.40;;
16531;SDS011;66872;63.142;14.482;2023-02-08T16:05:09;1.27;;;0.40;;
16531;SDS011;66872;63.142;14.482;2023-02-08T16:07:43;0.57;;;0.57;;
16531;SDS011;66872;63.142;14.482;2023-02-08T16:13:02;0.40;;;0.40;;
16531;SDS011;66872;63.142;14.482;2023-02-08T16:17:58;0.40;;;0.40;;
16531;SDS011;66872;63.142;14.482;2023-02-08T16:20:25;0.25;;;0.25;;
16531;SDS011;66872;63.142;14.482;2023-02-08T16:22:57;0.47;;;0.47;;
16531;SDS011;66872;63.142;14.482;2023-02-08T16:28:28;0.30;;;0.30;;
16531;SDS011;66872;63.142;14.482;2023-02-08T16:30:56;0.50;;;0.45;;
16531;SDS011;66872;63.142;14.482;2023-02-08T16:33:25;1.55;;;0.40;;
16531;SDS011;66872;63.142;14.482;2023-02-08T16:35:51;0.75;;;0.43;;
16531;SDS011;66872;63.142;14.482;2023-02-08T16:38:21;0.50;;;0.50;;
16531;SDS011;66872;63.142;14.482;2023-02-08T16:40:52;0.60;;;0.60;;
16531;SDS011;66872;63.142;14.482;2023-02-08T16:48:39;0.40;;;0.40;;
16531;SDS011;66872;63.142;14.482;2023-02-08T16:51:13;0.40;;;0.40;;
16531;SDS011;66872;63.142;14.482;2023-02-08T16:53:48;0.30;;;0.30;;
16531;SDS011;66872;63.142;14.482;2023-02-08T16:56:15;0.50;;;0.50;;
16531;SDS011;66872;63.142;14.482;2023-02-08T16:58:41;0.88;;;0.40;;
16531;SDS011;66872;63.142;14.482;2023-02-08T17:01:09;1.08;;;0.52;;
16531;SDS011;66872;63.142;14.482;2023-02-08T17:03:36;0.40;;;0.40;;
16531;SDS011;66872;63.142;14.482;2023-02-08T17:06:02;0.73;;;0.40;;
16531;SDS011;66872;63.142;14.482;2023-02-08T17:08:28;0.22;;;0.22;;
16531;SDS011;66872;63.142;14.482;2023-02-08T17:10:54;0.30;;;0.30;;
16531;SDS011;66872;63.142;14.482;2023-02-08T17:13:22;0.82;;;0.73;;
16531;SDS011;66872;63.142;14.482;2023-02-08T17:15:51;0.38;;;0.38;;
16531;SDS011;66872;63.142;14.482;2023-02-08T17:18:17;1.77;;;0.50;;
16531;SDS011;66872;63.142;14.482;2023-02-08T17:20:44;0.73;;;0.50;;
16531;SDS011;66872;63.142;14.482;2023-02-08T17:23:10;0.35;;;0.35;;
16531;SDS011;66872;63.142;14.482;2023-02-08T17:25:36;0.88;;;0.60;;
16531;SDS011;66872;63.142;14.482;2023-02-08T17:28:06;0.82;;;0.82;;
16531;SDS011;66872;63.142;14.482;2023-02-08T17:30:39;1.50;;;1.13;;
16531;SDS011;66872;63.142;14.482;2023-02-08T17:33:06;1.60;;;1.50;;
16531;SDS011;66872;63.142;14.482;2023-02-08T17:35:34;1.85;;;1.50;;
16531;SDS011;66872;63.142;14.482;2023-02-08T17:38:02;1.98;;;1.45;;
16531;SDS011;66872;63.142;14.482;2023-02-08T17:40:30;2.40;;;1.95;;
16531;SDS011;66872;63.142;14.482;2023-02-08T17:43:00;3.70;;;1.77;;
16531;SDS011;66872;63.142;14.482;2023-02-08T17:45:27;3.03;;;1.85;;
16531;SDS011;66872;63.142;14.482;2023-02-08T17:47:53;2.55;;;1.88;;